createdAt,value
2022-12-05T00:01:28.764Z,101508.69
2022-12-05T00:03:58.685Z,101514.31
2022-12-05T00:06:28.060Z,101510.28
2022-12-05T00:08:55.311Z,101519.13
2022-12-05T00:11:27.123Z,101515.09
2022-12-05T00:13:55.598Z,101517.56
2022-12-05T00:16:26.131Z,101527.19
2022-12-05T00:19:08.556Z,101488.69
2022-12-05T00:21:37.192Z,101525.97
2022-12-05T00:24:05.655Z,101519.50
2022-12-05T00:26:32.748Z,101512.66
2022-12-05T00:29:01.471Z,101508.59
2022-12-05T00:31:28.705Z,101512.22
2022-12-05T00:33:56.732Z,101511.44
2022-12-05T00:36:30.763Z,101502.94
2022-12-05T00:38:59.289Z,101506.25
2022-12-05T00:41:27.679Z,101503.00
2022-12-05T00:43:55.217Z,101509.44
2022-12-05T00:46:24.297Z,101498.94
2022-12-05T00:48:53.247Z,101503.78
2022-12-05T00:51:28.590Z,101496.09
2022-12-05T00:53:58.022Z,101498.88
2022-12-05T00:56:26.338Z,101502.94
2022-12-05T00:58:54.953Z,101508.97
2022-12-05T01:01:24.969Z,101502.09
2022-12-05T01:03:55.112Z,101506.94
2022-12-05T01:06:23.516Z,101500.84
2022-12-05T01:08:50.220Z,101500.84
2022-12-05T01:11:18.875Z,101513.00
2022-12-05T01:13:46.584Z,101500.84
2022-12-05T01:16:20.835Z,101506.09
2022-12-05T01:18:47.458Z,101495.63
2022-12-05T01:21:14.011Z,101499.28
2022-12-05T01:23:40.848Z,101499.66
2022-12-05T01:26:09.287Z,101495.59
2022-12-05T01:28:36.769Z,101494.00
2022-12-05T01:31:08.662Z,101495.19
2022-12-05T01:33:35.714Z,101487.91
2022-12-05T01:36:03.705Z,101488.28
2022-12-05T01:38:30.368Z,101489.53
2022-12-05T01:41:02.004Z,101488.69
2022-12-05T01:43:28.730Z,101490.75
2022-12-05T01:45:55.370Z,101491.94
2022-12-05T01:48:35.664Z,101487.50
2022-12-05T01:51:02.728Z,101481.84
2022-12-05T01:53:29.646Z,101486.63
2022-12-05T01:55:57.328Z,101489.03
2022-12-05T01:58:28.202Z,101485.81
2022-12-05T02:00:54.832Z,101489.84
2022-12-05T02:03:22.068Z,101483.38
2022-12-05T02:05:52.589Z,101477.75
2022-12-05T02:08:19.882Z,101478.53
2022-12-05T02:10:50.491Z,101478.53
2022-12-05T02:13:47.111Z,101472.44
2022-12-05T02:16:35.810Z,101459.94
2022-12-05T02:19:27.596Z,101465.59
2022-12-05T02:22:26.821Z,101467.22
2022-12-05T02:25:26.659Z,101462.41
2022-12-05T02:28:08.529Z,101466.44
2022-12-05T02:30:40.899Z,101458.00
2022-12-05T02:33:10.109Z,101464.75
2022-12-05T02:35:49.039Z,101460.78
2022-12-05T02:38:37.224Z,101459.09
2022-12-05T02:41:37.839Z,101461.94
2022-12-05T02:44:12.070Z,101458.31
2022-12-05T02:46:40.247Z,101468.44
2022-12-05T02:49:13.177Z,101473.66
2022-12-05T02:51:43.480Z,101468.81
2022-12-05T02:54:21.606Z,101462.34
2022-12-05T02:56:49.537Z,101464.75
2022-12-05T02:59:21.486Z,101457.88
2022-12-05T03:01:49.938Z,101449.41
2022-12-05T03:04:19.063Z,101461.91
2022-12-05T03:07:00.115Z,101458.25
2022-12-05T03:09:45.734Z,101459.06
2022-12-05T03:12:22.768Z,101461.06
2022-12-05T03:14:54.927Z,101457.03
2022-12-05T03:17:29.500Z,101455.81
2022-12-05T03:20:11.916Z,101447.38
2022-12-05T03:23:29.459Z,101449.81
2022-12-05T03:26:17.138Z,101448.56
2022-12-05T03:29:21.241Z,101451.00
2022-12-05T03:32:03.037Z,101454.25
2022-12-05T03:34:43.798Z,101452.16
2022-12-05T03:37:20.234Z,101452.16
2022-12-05T03:39:54.447Z,101450.94
2022-12-05T03:42:31.598Z,101442.09
2022-12-05T03:45:03.329Z,101453.34
2022-12-05T03:47:38.624Z,101442.03
2022-12-05T03:50:19.178Z,101450.53
2022-12-05T03:53:18.527Z,101448.50
2022-12-05T03:55:42.303Z,101446.50
2022-12-05T03:58:18.364Z,101442.84
2022-12-05T04:00:50.753Z,101443.63
2022-12-05T04:03:22.582Z,101443.25
2022-12-05T04:05:59.625Z,101452.09
2022-12-05T04:08:35.503Z,101444.44
2022-12-05T04:11:07.371Z,101442.41
2022-12-05T04:13:44.071Z,101447.28
2022-12-05T04:16:35.873Z,101439.56
2022-12-05T04:19:07.999Z,101429.53
2022-12-05T04:21:42.783Z,101427.47
2022-12-05T04:24:33.452Z,101420.28
2022-12-05T04:27:28.026Z,101433.56
2022-12-05T04:30:14.647Z,101429.97
2022-12-05T04:32:53.357Z,101424.31
2022-12-05T04:35:25.498Z,101427.53
2022-12-05T04:37:58.304Z,101438.03
2022-12-05T04:40:49.654Z,101440.44
2022-12-05T04:43:18.766Z,101434.78
2022-12-05T04:45:45.662Z,101445.66
2022-12-05T04:48:16.056Z,101450.94
2022-12-05T04:50:46.542Z,101454.94
2022-12-05T04:53:16.742Z,101454.94
2022-12-05T04:55:50.041Z,101458.94
2022-12-05T04:58:20.163Z,101462.22
2022-12-05T05:00:59.274Z,101464.25
2022-12-05T05:03:42.275Z,101456.25
2022-12-05T05:06:11.781Z,101467.91
2022-12-05T05:08:56.049Z,101461.47
2022-12-05T05:11:26.472Z,101463.81
2022-12-05T05:13:54.101Z,101463.81
2022-12-05T05:16:24.724Z,101453.34
2022-12-05T05:18:52.108Z,101458.94
2022-12-05T05:21:23.976Z,101465.41
2022-12-05T05:23:51.008Z,101454.09
2022-12-05T05:26:18.642Z,101456.19
2022-12-05T05:28:46.238Z,101461.78
2022-12-05T05:31:13.671Z,101461.34
2022-12-05T05:33:40.533Z,101454.09
2022-12-05T05:36:09.632Z,101464.97
2022-12-05T05:38:44.432Z,101455.75
2022-12-05T05:41:16.884Z,101456.56
2022-12-05T05:43:44.516Z,101458.94
2022-12-05T05:46:11.413Z,101455.34
2022-12-05T05:48:38.350Z,101458.16
2022-12-05T05:51:06.626Z,101456.13
2022-12-05T05:53:33.252Z,101462.56
2022-12-05T05:56:04.504Z,101459.31
2022-12-05T05:58:31.054Z,101460.56
2022-12-05T06:01:13.370Z,101458.94
2022-12-05T06:03:40.163Z,101457.75
2022-12-05T06:06:09.878Z,101454.09
2022-12-05T06:08:39.071Z,101456.50
2022-12-05T06:11:10.953Z,101455.75
2022-12-05T06:13:37.912Z,101467.00
2022-12-05T06:16:07.040Z,101457.34
2022-12-05T06:18:34.428Z,101460.56
2022-12-05T06:21:01.116Z,101455.75
2022-12-05T06:23:28.197Z,101471.06
2022-12-05T06:25:56.266Z,101477.13
2022-12-05T06:28:25.647Z,101468.63
2022-12-05T06:30:52.620Z,101461.34
2022-12-05T06:33:20.208Z,101467.44
2022-12-05T06:35:47.572Z,101471.88
2022-12-05T06:38:14.408Z,101462.97
2022-12-05T06:40:42.829Z,101468.63
2022-12-05T06:43:09.968Z,101469.84
2022-12-05T06:45:39.544Z,101474.28
2022-12-05T06:48:06.921Z,101467.88
2022-12-05T06:50:33.673Z,101470.69
2022-12-05T06:53:00.143Z,101465.41
2022-12-05T06:55:27.068Z,101467.06
2022-12-05T06:57:53.512Z,101471.06
2022-12-05T07:00:38.644Z,101469.47
2022-12-05T07:03:05.064Z,101473.53
2022-12-05T07:05:33.138Z,101481.63
2022-12-05T07:07:59.595Z,101480.78
2022-12-05T07:10:26.059Z,101481.56
2022-12-05T07:12:52.524Z,101477.13
2022-12-05T07:15:18.935Z,101479.19
2022-12-05T07:17:45.373Z,101483.19
2022-12-05T07:20:12.704Z,101476.72
2022-12-05T07:22:39.150Z,101481.56
2022-12-05T07:25:05.976Z,101476.72
2022-12-05T07:27:34.026Z,101475.50
2022-12-05T07:30:01.138Z,101467.88
2022-12-05T07:32:31.963Z,101476.72
2022-12-05T07:34:58.360Z,101471.88
2022-12-05T07:37:24.918Z,101473.53
2022-12-05T07:39:54.336Z,101475.13
2022-12-05T07:42:20.905Z,101469.47
2022-12-05T07:44:47.317Z,101469.47
2022-12-05T07:47:13.786Z,101475.13
2022-12-05T07:49:40.258Z,101484.41
2022-12-05T07:52:06.872Z,101469.47
2022-12-05T07:54:33.534Z,101479.19
2022-12-05T07:56:59.946Z,101477.56
2022-12-05T07:59:26.527Z,101479.53
2022-12-05T08:01:52.988Z,101485.19
2022-12-05T08:04:19.618Z,101469.91
2022-12-05T08:06:46.272Z,101468.66
2022-12-05T08:09:12.952Z,101467.88
2022-12-05T08:11:39.585Z,101490.84
2022-12-05T08:14:06.801Z,101482.38
2022-12-05T08:16:34.368Z,101495.28
2022-12-05T08:19:07.516Z,101499.34
2022-12-05T08:21:34.933Z,101488.84
2022-12-05T08:24:04.515Z,101483.19
2022-12-05T08:26:32.057Z,101488.03
2022-12-05T08:29:03.129Z,101495.28
2022-12-05T08:31:32.528Z,101490.50
2022-12-05T08:34:00.210Z,101496.50
2022-12-05T08:36:29.253Z,101500.16
2022-12-05T08:38:58.016Z,101495.28
2022-12-05T08:41:28.486Z,101499.34
2022-12-05T08:43:56.566Z,101499.34
2022-12-05T08:46:23.066Z,101506.59
2022-12-05T08:48:49.544Z,101501.81
2022-12-05T08:51:15.971Z,101505.00
2022-12-05T08:53:44.737Z,101501.38
2022-12-05T08:56:12.047Z,101508.22
2022-12-05T08:58:38.700Z,101507.41
2022-12-05T09:01:07.212Z,101508.22
2022-12-05T09:03:33.747Z,101502.56
2022-12-05T09:06:15.023Z,101503.41
2022-12-05T09:08:42.375Z,101508.22
2022-12-05T09:11:14.540Z,101510.66
2022-12-05T09:13:41.415Z,101515.09
2022-12-05T09:16:13.407Z,101510.66
2022-12-05T09:18:40.253Z,101509.06
2022-12-05T09:21:12.586Z,101508.22
2022-12-05T09:23:39.109Z,101515.09
2022-12-05T09:26:07.564Z,101517.06
2022-12-05T09:28:35.124Z,101512.63
2022-12-05T09:31:05.266Z,101506.97
2022-12-05T09:33:34.640Z,101517.88
2022-12-05T09:36:06.195Z,101509.81
2022-12-05T09:38:33.281Z,101515.47
2022-12-05T09:41:43.729Z,101505.41
2022-12-05T09:44:28.616Z,101508.22
2022-12-05T09:47:00.572Z,101503.34
2022-12-05T09:49:27.740Z,101500.94
2022-12-05T09:51:55.644Z,101495.28
2022-12-05T09:54:23.472Z,101494.06
2022-12-05T09:56:51.797Z,101489.22
2022-12-05T09:59:20.480Z,101492.41
2022-12-05T10:01:55.886Z,101488.78
2022-12-05T10:05:04.423Z,101491.25
2022-12-05T10:07:42.676Z,101488.78
2022-12-05T10:10:33.541Z,101481.53
2022-12-05T10:13:20.315Z,101483.13
2022-12-05T10:15:56.780Z,101472.66
2022-12-05T10:18:46.978Z,101483.13
2022-12-05T10:21:21.367Z,101483.50
2022-12-05T10:23:58.935Z,101474.22
2022-12-05T10:26:34.330Z,101473.44
2022-12-05T10:29:31.727Z,101479.88
2022-12-05T10:32:21.822Z,101481.53
2022-12-05T10:34:50.718Z,101473.84
2022-12-05T10:37:19.553Z,101475.00
2022-12-05T10:39:47.885Z,101474.16
2022-12-05T10:42:31.737Z,101477.00
2022-12-05T10:45:14.131Z,101469.28
2022-12-05T10:47:40.593Z,101470.13
2022-12-05T10:50:22.558Z,101469.72
2022-12-05T10:52:49.220Z,101475.78
2022-12-05T10:55:17.874Z,101476.13
2022-12-05T10:57:50.359Z,101471.69
2022-12-05T11:00:21.236Z,101470.06
2022-12-05T11:02:49.660Z,101464.41
2022-12-05T11:05:27.084Z,101454.72
2022-12-05T11:07:55.220Z,101461.16
2022-12-05T11:10:44.106Z,101462.78
2022-12-05T11:13:24.619Z,101462.34
2022-12-05T11:15:55.511Z,101457.53
2022-12-05T11:18:25.338Z,101460.34
2022-12-05T11:20:52.154Z,101451.03
2022-12-05T11:23:25.505Z,101455.50
2022-12-05T11:25:52.919Z,101452.66
2022-12-05T11:28:29.724Z,101455.06
2022-12-05T11:31:06.809Z,101450.19
2022-12-05T11:33:35.541Z,101446.56
2022-12-05T11:36:22.521Z,101441.69
2022-12-05T11:38:49.551Z,101442.53
2022-12-05T11:41:43.357Z,101440.50
2022-12-05T11:44:24.178Z,101437.66
2022-12-05T11:46:57.468Z,101437.28
2022-12-05T11:49:45.596Z,101438.50
2022-12-05T11:52:37.377Z,101438.50
2022-12-05T11:55:22.423Z,101443.31
2022-12-05T11:58:16.108Z,101439.28
2022-12-05T12:00:57.815Z,101427.13
2022-12-05T12:03:51.860Z,101433.63
2022-12-05T12:06:27.295Z,101432.38
2022-12-05T12:09:30.722Z,101437.66
2022-12-05T12:12:24.393Z,101435.19
2022-12-05T12:15:20.022Z,101430.38
2022-12-05T12:18:02.379Z,101427.97
2022-12-05T12:21:08.799Z,101431.94
2022-12-05T12:23:47.291Z,101419.81
2022-12-05T12:26:35.367Z,101429.53
2022-12-05T12:29:43.565Z,101427.13
2022-12-05T12:32:58.009Z,101429.53
2022-12-05T12:35:31.858Z,101419.81
2022-12-05T12:38:17.550Z,101433.97
2022-12-05T12:40:54.783Z,101422.22
2022-12-05T12:43:53.973Z,101415.03
2022-12-05T12:46:33.417Z,101411.34
2022-12-05T12:49:15.381Z,101415.75
2022-12-05T12:51:50.446Z,101413.31
2022-12-05T12:55:01.567Z,101413.31
2022-12-05T12:57:43.710Z,101416.56
2022-12-05T13:00:27.741Z,101419.75
2022-12-05T13:03:05.417Z,101417.72
2022-12-05T13:05:39.166Z,101427.03
2022-12-05T13:08:11.694Z,101418.97
2022-12-05T13:10:44.728Z,101423.78
2022-12-05T13:13:16.095Z,101419.75
2022-12-05T13:15:54.503Z,101414.91
2022-12-05T13:18:23.687Z,101420.56
2022-12-05T13:20:56.158Z,101420.94
2022-12-05T13:23:25.694Z,101423.78
2022-12-05T13:25:54.794Z,101419.69
2022-12-05T13:28:31.502Z,101420.94
2022-12-05T13:31:03.742Z,101414.03
2022-12-05T13:33:36.751Z,101410.84
2022-12-05T13:36:26.259Z,101419.34
2022-12-05T13:39:18.010Z,101416.50
2022-12-05T13:42:09.316Z,101412.88
2022-12-05T13:44:48.785Z,101418.97
2022-12-05T13:47:59.357Z,101423.03
2022-12-05T13:50:35.362Z,101423.81
2022-12-05T13:53:05.686Z,101423.03
2022-12-05T13:55:36.563Z,101420.19
2022-12-05T13:58:21.813Z,101433.97
2022-12-05T14:00:52.568Z,101425.47
2022-12-05T14:03:34.525Z,101425.47
2022-12-05T14:06:01.072Z,101417.78
2022-12-05T14:08:30.462Z,101423.03
2022-12-05T14:10:56.804Z,101420.63
2022-12-05T14:13:27.003Z,101420.19
2022-12-05T14:15:55.228Z,101416.56
2022-12-05T14:18:50.856Z,101421.41
2022-12-05T14:21:36.475Z,101416.63
2022-12-05T14:24:28.058Z,101427.94
2022-12-05T14:27:12.689Z,101416.63
2022-12-05T14:29:59.614Z,101422.28
2022-12-05T14:32:38.820Z,101415.03
2022-12-05T14:35:23.805Z,101414.22
2022-12-05T14:37:56.932Z,101424.72
2022-12-05T14:40:35.241Z,101407.03
2022-12-05T14:43:03.279Z,101419.06
2022-12-05T14:45:40.016Z,101415.88
2022-12-05T14:48:27.875Z,101416.72
2022-12-05T14:50:56.867Z,101415.88
2022-12-05T14:53:31.164Z,101417.94
2022-12-05T14:56:01.047Z,101414.28
2022-12-05T14:58:37.344Z,101414.28
2022-12-05T15:01:14.855Z,101412.69
2022-12-05T15:04:01.981Z,101417.53
2022-12-05T15:06:28.811Z,101419.19
2022-12-05T15:09:28.397Z,101423.59
2022-12-05T15:11:45.493Z,101418.38
2022-12-05T15:14:23.114Z,101408.75
2022-12-05T15:16:52.325Z,101414.41
2022-12-05T15:19:23.974Z,101407.13
2022-12-05T15:21:57.526Z,101417.59
2022-12-05T15:24:24.179Z,101415.97
2022-12-05T15:26:53.981Z,101415.97
2022-12-05T15:29:23.153Z,101415.97
2022-12-05T15:31:57.220Z,101427.28
2022-12-05T15:34:45.511Z,101420.91
2022-12-05T15:37:33.534Z,101424.16
2022-12-05T15:40:11.230Z,101427.00
2022-12-05T15:42:42.680Z,101433.44
2022-12-05T15:45:16.581Z,101422.56
2022-12-05T15:47:45.968Z,101427.00
2022-12-05T15:50:13.783Z,101429.44
2022-12-05T15:53:12.347Z,101422.19
2022-12-05T15:55:55.083Z,101427.47
2022-12-05T15:58:26.441Z,101427.06
2022-12-05T16:00:58.478Z,101421.00
2022-12-05T16:03:36.697Z,101436.75
2022-12-05T16:06:13.826Z,101431.47
2022-12-05T16:08:45.368Z,101416.97
2022-12-05T16:11:13.971Z,101425.81
2022-12-05T16:13:49.851Z,101421.41
2022-12-05T16:16:21.244Z,101422.59
2022-12-05T16:18:57.890Z,101422.59
2022-12-05T16:21:34.436Z,101414.56
2022-12-05T16:24:17.668Z,101421.47
2022-12-05T16:27:13.002Z,101413.41
2022-12-05T16:29:39.634Z,101417.44
2022-12-05T16:32:25.152Z,101416.22
2022-12-05T16:34:51.613Z,101417.44
2022-12-05T16:37:29.008Z,101415.47
2022-12-05T16:39:56.142Z,101411.44
2022-12-05T16:42:27.943Z,101416.66
2022-12-05T16:45:02.206Z,101417.44
2022-12-05T16:47:40.785Z,101424.31
2022-12-05T16:50:34.936Z,101419.09
2022-12-05T16:53:32.627Z,101421.53
2022-12-05T16:56:00.377Z,101425.16
2022-12-05T16:58:30.299Z,101419.50
2022-12-05T17:01:02.385Z,101425.16
2022-12-05T17:03:36.652Z,101417.09
2022-12-05T17:06:03.549Z,101415.09
2022-12-05T17:08:29.939Z,101424.75
2022-12-05T17:10:57.861Z,101413.84
2022-12-05T17:13:24.339Z,101414.72
2022-12-05T17:15:51.190Z,101422.34
2022-12-05T17:18:20.724Z,101432.44
2022-12-05T17:20:54.343Z,101426.41
2022-12-05T17:23:20.742Z,101414.72
2022-12-05T17:25:56.467Z,101429.25
2022-12-05T17:28:24.033Z,101420.38
2022-12-05T17:30:51.287Z,101427.63
2022-12-05T17:33:19.719Z,101426.84
2022-12-05T17:35:46.658Z,101423.25
2022-12-05T17:38:13.200Z,101430.88
2022-12-05T17:40:40.122Z,101412.38
2022-12-05T17:43:06.797Z,101430.09
2022-12-05T17:45:33.597Z,101427.25
2022-12-05T17:48:00.098Z,101430.09
2022-12-05T17:50:27.307Z,101423.25
2022-12-05T17:52:56.887Z,101426.91
2022-12-05T17:55:28.759Z,101430.94
2022-12-05T17:57:55.650Z,101422.09
2022-12-05T18:00:23.783Z,101414.88
2022-12-05T18:02:52.276Z,101422.09
2022-12-05T18:05:18.921Z,101420.47
2022-12-05T18:07:45.742Z,101422.13
2022-12-05T18:10:17.134Z,101430.56
2022-12-05T18:12:43.656Z,101435.09
2022-12-05T18:15:10.671Z,101431.03
2022-12-05T18:17:37.292Z,101433.44
2022-12-05T18:20:04.801Z,101439.91
2022-12-05T18:22:31.392Z,101435.47
2022-12-05T18:24:58.465Z,101433.84
2022-12-05T18:27:25.584Z,101433.84
2022-12-05T18:29:52.270Z,101432.28
2022-12-05T18:32:19.765Z,101432.31
2022-12-05T18:34:46.460Z,101440.75
2022-12-05T18:37:13.175Z,101433.47
2022-12-05T18:39:39.605Z,101432.75
2022-12-05T18:42:11.767Z,101440.34
2022-12-05T18:44:41.442Z,101441.59
2022-12-05T18:47:08.056Z,101443.66
2022-12-05T18:49:34.521Z,101451.28
2022-12-05T18:52:01.195Z,101442.44
2022-12-05T18:54:27.597Z,101448.09
2022-12-05T18:56:54.106Z,101448.47
2022-12-05T18:59:21.759Z,101443.28
2022-12-05T19:01:49.257Z,101454.53
2022-12-05T19:04:19.447Z,101451.34
2022-12-05T19:06:54.340Z,101456.22
2022-12-05T19:09:24.022Z,101457.00
2022-12-05T19:11:54.845Z,101454.19
2022-12-05T19:14:21.700Z,101453.81
2022-12-05T19:16:53.683Z,101454.59
2022-12-05T19:19:24.758Z,101449.00
2022-12-05T19:21:51.914Z,101440.56
2022-12-05T19:24:19.348Z,101446.19
2022-12-05T19:26:47.792Z,101447.75
2022-12-05T19:29:16.126Z,101448.19
2022-12-05T19:31:43.463Z,101444.56
2022-12-05T19:34:10.589Z,101439.34
2022-12-05T19:36:42.907Z,101441.72
2022-12-05T19:39:09.257Z,101449.44
2022-12-05T19:41:36.387Z,101449.06
2022-12-05T19:44:04.190Z,101444.97
2022-12-05T19:46:32.928Z,101441.78
2022-12-05T19:49:03.554Z,101440.56
2022-12-05T19:51:31.626Z,101453.09
2022-12-05T19:53:59.965Z,101448.66
2022-12-05T19:56:28.483Z,101445.47
2022-12-05T19:58:57.183Z,101449.91
2022-12-05T20:01:30.654Z,101450.75
2022-12-05T20:04:01.016Z,101445.09
2022-12-05T20:06:32.089Z,101442.63
2022-12-05T20:08:59.792Z,101454.38
2022-12-05T20:11:28.956Z,101440.28
2022-12-05T20:13:56.729Z,101450.75
2022-12-05T20:16:26.896Z,101457.19
2022-12-05T20:18:55.458Z,101446.31
2022-12-05T20:21:22.968Z,101443.47
2022-12-05T20:23:51.521Z,101435.00
2022-12-05T20:26:26.422Z,101443.47
2022-12-05T20:28:56.483Z,101441.06
2022-12-05T20:31:25.416Z,101440.28
2022-12-05T20:33:53.722Z,101435.84
2022-12-05T20:36:22.578Z,101435.47
2022-12-05T20:38:53.975Z,101423.38
2022-12-05T20:41:20.389Z,101427.00
2022-12-05T20:43:51.910Z,101439.50
2022-12-05T20:46:20.154Z,101429.81
2022-12-05T20:48:47.641Z,101431.03
2022-12-05T20:51:16.821Z,101431.03
2022-12-05T20:53:44.843Z,101425.38
2022-12-05T20:56:16.732Z,101420.16
2022-12-05T20:58:48.396Z,101414.94
2022-12-05T21:01:16.210Z,101416.53
2022-12-05T21:03:44.943Z,101419.38
2022-12-05T21:06:17.752Z,101417.75
2022-12-05T21:08:44.912Z,101401.66
2022-12-05T21:11:12.343Z,101405.66
2022-12-05T21:13:39.439Z,101416.16
2022-12-05T21:16:09.688Z,101414.56
2022-12-05T21:18:36.889Z,101414.56
2022-12-05T21:21:05.920Z,101411.38
2022-12-05T21:23:33.341Z,101412.94
2022-12-05T21:26:06.412Z,101410.13
2022-12-05T21:28:34.203Z,101405.72
2022-12-05T21:31:25.974Z,101396.88
2022-12-05T21:33:55.373Z,101396.88
2022-12-05T21:36:23.336Z,101402.53
2022-12-05T21:38:55.711Z,101390.44
2022-12-05T21:41:25.552Z,101400.13
2022-12-05T21:43:55.303Z,101401.34
2022-12-05T21:46:24.514Z,101396.47
2022-12-05T21:48:51.341Z,101397.72
2022-12-05T21:51:18.007Z,101392.50
2022-12-05T21:53:44.506Z,101387.63
2022-12-05T21:56:16.681Z,101390.44
2022-12-05T21:58:44.894Z,101382.78
2022-12-05T22:01:17.374Z,101390.44
2022-12-05T22:03:44.260Z,101384.00
2022-12-05T22:06:13.184Z,101381.59
2022-12-05T22:08:39.648Z,101392.50
2022-12-05T22:11:15.297Z,101390.88
2022-12-05T22:13:43.133Z,101385.66
2022-12-05T22:16:10.428Z,101388.84
2022-12-05T22:18:37.325Z,101377.59
2022-12-05T22:21:07.188Z,101386.03
2022-12-05T22:23:34.767Z,101382.81
2022-12-05T22:26:06.854Z,101378.78
2022-12-05T22:28:34.117Z,101375.97
2022-12-05T22:31:03.598Z,101385.22
2022-12-05T22:33:31.557Z,101382.44
2022-12-05T22:36:00.269Z,101375.97
2022-12-05T22:38:30.228Z,101379.22
2022-12-05T22:41:02.300Z,101376.38
2022-12-05T22:43:30.654Z,101373.56
2022-12-05T22:45:57.171Z,101371.53
2022-12-05T22:48:24.252Z,101361.50
2022-12-05T22:50:53.925Z,101375.56
2022-12-05T22:53:22.591Z,101369.91
2022-12-05T22:55:49.435Z,101366.28
2022-12-05T22:58:16.502Z,101372.72
2022-12-05T23:00:43.876Z,101366.28
2022-12-05T23:03:10.863Z,101372.72
2022-12-05T23:05:42.319Z,101358.25
2022-12-05T23:08:10.155Z,101353.38
2022-12-05T23:10:39.092Z,101362.69
2022-12-05T23:13:09.073Z,101357.03
2022-12-05T23:15:38.772Z,101351.81
2022-12-05T23:18:05.308Z,101355.06
2022-12-05T23:20:32.373Z,101352.59
2022-12-05T23:22:58.786Z,101350.97
2022-12-05T23:25:25.194Z,101344.13
2022-12-05T23:27:51.665Z,101346.16
2022-12-05T23:30:18.515Z,101341.28
2022-12-05T23:32:44.963Z,101339.69
2022-12-05T23:35:11.749Z,101339.69
2022-12-05T23:37:39.494Z,101337.69
2022-12-05T23:40:06.476Z,101340.94
2022-12-05T23:42:32.856Z,101333.25
2022-12-05T23:44:59.301Z,101327.59
2022-12-05T23:47:25.757Z,101328.38
2022-12-05T23:49:52.497Z,101323.63
2022-12-05T23:52:18.962Z,101325.19
2022-12-05T23:54:45.351Z,101326.81
2022-12-05T23:57:17.248Z,101321.94
2022-12-05T23:59:44.135Z,101318.75
